• Join FlightAware (Why Join?)
  • Login
  • US Flag 
07:09PM EST


 

Airport Tracker/Info


-or-


 

Live Flight TrackerFlight Track Log ✈ SVA1539 ✈ 01-May-2012 ✈ OERK / RUH - OETB / TUU

Flight Track Log - Related Links

Times and Time Zones

All times are in EDT time to prevent confusion due to time zone crossing. See the SVA1539 flight status page for this flight to view local times or setup timezone preferences in your user account.

Time Position Orientation Groundspeed Altitude Reporting Facility
EDT Latitude Longitude Course Direction KTS MPH feet Rate Location/Type
02:19PM 26.0820 43.6589 292° West  Level Estimated
02:20PM 26.1194 43.5540 292° West  Level Estimated
02:21PM 26.1566 43.4490 292° West  Level Estimated
02:22PM 26.1938 43.3439 291° West  Level Estimated
02:23PM 26.2309 43.2387 291° West  Level Estimated
02:24PM 26.2679 43.1335 291° West  Level Estimated
02:25PM 26.3048 43.0283 291° West  Level Estimated
02:26PM 26.3417 42.9229 291° West  Level Estimated
02:27PM 26.3784 42.8175 291° West  Level Estimated
02:28PM 26.4151 42.7120 291° West  Level Estimated
02:29PM 26.4518 42.6065 291° West  Level Estimated
02:30PM 26.4883 42.5009 291° West  Level Estimated
02:31PM 26.5248 42.3952 291° West  Level Estimated
02:32PM 26.5612 42.2895 291° West  Level Estimated
02:33PM 26.5975 42.1837 291° West  Level Estimated
02:34PM 26.6338 42.0778 291° West  Level Estimated
02:35PM 26.6699 41.9718 291° West  Level Estimated
02:36PM 26.7060 41.8658 291° West  Level Estimated
02:37PM 26.7420 41.7598 291° West  Level Estimated
02:38PM 26.7779 41.6536 291° West  Level Estimated
02:39PM 26.8137 41.5474 291° West  Level Estimated
02:40PM 26.8495 41.4411 291° West  Level Estimated
02:41PM 26.8852 41.3348 291° West  Level Estimated
02:42PM 26.9208 41.2284 291° West  Level Estimated
02:43PM 26.9563 41.1219 290° West  Level Estimated
02:44PM 26.9918 41.0153 290° West  Level Estimated
02:45PM 27.0272 40.9087 290° West  Level Estimated
02:46PM 27.0625 40.8020 290° West  Level Estimated
02:47PM 27.0977 40.6953 290° West  Level Estimated
02:48PM 27.1328 40.5885 290° West  Level Estimated
02:49PM 27.1678 40.4816 290° West  Level Estimated
02:50PM 27.2028 40.3746 290° West  Level Estimated
02:51PM 27.2377 40.2676 290° West  Level Estimated
02:52PM 27.2725 40.1605 290° West  Level Estimated
02:53PM 27.3072 40.0534 290° West  Level Estimated
02:54PM 27.3418 39.9462 290° West  Level Estimated
02:55PM 27.3764 39.8389 290° West  Level Estimated
02:56PM 27.4108 39.7315 290° West  Level Estimated
02:57PM 27.4452 39.6241 290° West  Level Estimated
02:58PM 27.4795 39.5166 290° West  Level Estimated
02:59PM 27.5138 39.4091 290° West  Level Estimated
03:00PM 27.5479 39.3015 290° West  Level Estimated
03:01PM 27.5820 39.1938 290° West  Level Estimated
03:02PM 27.6159 39.0860 290° West  Level Estimated
03:03PM 27.6498 38.9782 290° West  Level Estimated
03:04PM 27.6836 38.8703 289° West  Level Estimated
03:05PM 27.7174 38.7624 289° West  Level Estimated
03:06PM 27.7510 38.6543 289° West  Level Estimated
03:07PM 27.7846 38.5462 289° West  Level Estimated
03:08PM 27.8180 38.4381 289° West  Level Estimated
03:09PM 27.8514 38.3299 289° West  Level Estimated
03:10PM 27.8847 38.2216 289° West  Level Estimated
03:11PM 27.9180 38.1132 289° West  Level Estimated
03:12PM 27.9511 38.0048 289° West  Level Estimated
03:13PM 27.9841 37.8963 289° West  Level Estimated
03:14PM 28.0171 37.7878 289° West  Level Estimated
03:15PM 28.0500 37.6792 289° West  Level Estimated
03:16PM 28.0828 37.5705 289° West  Level Estimated
03:17PM 28.1155 37.4617 289° West  Level Estimated
03:18PM 28.1481 37.3529 289° West  Level Estimated
03:19PM 28.1807 37.2440 289° West  Level Estimated
03:20PM 28.2131 37.1351 289° West  Level Estimated
03:21PM 28.2455 37.0261 289° West  Level Estimated
03:22PM 28.2778 36.9170 289° West  Level Estimated
03:23PM 28.3099 36.8078 288° West  Level Estimated
03:24PM 28.3421 36.6986 288° West  Level Estimated
03:25PM 28.3741 36.5893 108° East  Level Estimated
03:26PM 28.3421 36.6986 288° West  Level Estimated
03:27PM 28.3741 36.5893 108° East  Level Estimated
03:28PM 28.3421 36.6986 288° West  Level Estimated
03:29PM 28.3741 36.5893 108° East  Level Estimated
03:30PM 28.3421 36.6986 288° West  Level Estimated
03:31PM 28.3741 36.5893 108° East  Level Estimated
03:32PM 28.3421 36.6986 288° West  Level Estimated
03:33PM 28.3741 36.5893 108° East  Level Estimated
03:34PM 28.3421 36.6986 288° West  Level Estimated
03:35PM 28.3741 36.5893 108° East  Level Estimated
03:36PM 28.3421 36.6986 288° West  Level Estimated
03:37PM 28.3741 36.5893 108° East  Level Estimated
03:38PM 28.3421 36.6986 288° West  Level Estimated
03:39PM 28.3741 36.5893 108° East  Level Estimated
03:40PM 28.3421 36.6986 108° East  Level Estimated